createdAt,value
2023-02-27T00:02:17.744Z,102785.31
2023-02-27T00:04:45.582Z,102782.94
2023-02-27T00:07:13.321Z,102783.66
2023-02-27T00:09:42.420Z,102778.44
2023-02-27T00:12:12.011Z,102779.56
2023-02-27T00:14:39.757Z,102785.75
2023-02-27T00:17:07.884Z,102791.22
2023-02-27T00:19:35.609Z,102786.03
2023-02-27T00:22:03.277Z,102786.03
2023-02-27T00:24:31.301Z,102777.19
2023-02-27T00:27:00.397Z,102781.84
2023-02-27T00:29:28.870Z,102779.03
2023-02-27T00:31:56.752Z,102772.84
2023-02-27T00:34:24.639Z,102773.81
2023-02-27T00:36:52.373Z,102771.31
2023-02-27T00:39:20.081Z,102771.44
2023-02-27T00:41:47.783Z,102772.28
2023-02-27T00:44:16.837Z,102769.91
2023-02-27T00:46:44.559Z,102768.91
2023-02-27T00:49:12.265Z,102772.56
2023-02-27T00:51:40.064Z,102779.72
2023-02-27T00:54:09.115Z,102774.41
2023-02-27T00:56:36.815Z,102769.06
2023-02-27T00:59:04.935Z,102768.38
2023-02-27T01:01:33.994Z,102774.69
2023-02-27T01:04:02.403Z,102760.66
2023-02-27T01:06:30.096Z,102765.13
2023-02-27T01:08:57.792Z,102761.63
2023-02-27T01:11:25.843Z,102760.09
2023-02-27T01:13:53.725Z,102756.59
2023-02-27T01:16:21.505Z,102765.56
2023-02-27T01:18:51.242Z,102757.69
2023-02-27T01:21:18.988Z,102758.53
2023-02-27T01:23:46.713Z,102763.88
2023-02-27T01:26:14.486Z,102758.69
2023-02-27T01:28:42.458Z,102760.50
2023-02-27T01:31:10.354Z,102762.34
2023-02-27T01:33:38.107Z,102761.63
2023-02-27T01:36:08.160Z,102750.56
2023-02-27T01:38:35.906Z,102755.34
2023-02-27T01:41:05.087Z,102757.84
2023-02-27T01:43:32.850Z,102753.66
2023-02-27T01:46:00.991Z,102750.41
2023-02-27T01:48:31.806Z,102752.25
2023-02-27T01:51:02.732Z,102754.91
2023-02-27T01:53:35.354Z,102755.47
2023-02-27T01:56:10.426Z,102746.91
2023-02-27T01:58:38.669Z,102752.25
2023-02-27T02:01:06.648Z,102747.19
2023-02-27T02:03:39.009Z,102755.19
2023-02-27T02:06:08.007Z,102749.72
2023-02-27T02:08:42.959Z,102753.22
2023-02-27T02:11:12.375Z,102756.88
2023-02-27T02:13:42.060Z,102764.03
2023-02-27T02:16:26.431Z,102758.84
2023-02-27T02:19:06.233Z,102760.66
2023-02-27T02:22:03.891Z,102759.69
2023-02-27T02:24:54.262Z,102760.66
2023-02-27T02:27:45.218Z,102759.81
2023-02-27T02:30:57.829Z,102763.34
2023-02-27T02:34:08.874Z,102766.97
2023-02-27T02:37:10.441Z,102768.81
2023-02-27T02:40:00.348Z,102770.75
2023-02-27T02:42:37.332Z,102774.28
2023-02-27T02:45:11.081Z,102775.25
2023-02-27T02:47:54.195Z,102769.94
2023-02-27T02:50:28.632Z,102769.94
2023-02-27T02:53:05.503Z,102768.38
2023-02-27T02:55:40.452Z,102770.34
2023-02-27T02:58:13.846Z,102768.53
2023-02-27T03:00:47.703Z,102769.50
2023-02-27T03:03:23.472Z,102767.69
2023-02-27T03:05:56.784Z,102765.00
2023-02-27T03:08:29.581Z,102766.84
2023-02-27T03:11:00.672Z,102773.16
2023-02-27T03:13:34.540Z,102763.59
2023-02-27T03:16:08.165Z,102772.44
2023-02-27T03:18:39.655Z,102766.28
2023-02-27T03:21:11.353Z,102767.28
2023-02-27T03:23:44.686Z,102779.59
2023-02-27T03:26:20.025Z,102779.59
2023-02-27T03:28:54.950Z,102772.44
2023-02-27T03:31:31.385Z,102783.94
2023-02-27T03:34:07.601Z,102791.09
2023-02-27T03:36:40.841Z,102787.59
2023-02-27T03:39:17.843Z,102786.09
2023-02-27T03:41:50.956Z,102792.41
2023-02-27T03:44:27.187Z,102798.72
2023-02-27T03:46:55.090Z,102789.16
2023-02-27T03:49:22.788Z,102784.81
2023-02-27T03:51:50.625Z,102785.66
2023-02-27T03:54:22.587Z,102796.31
2023-02-27T03:56:56.739Z,102794.63
2023-02-27T03:59:25.608Z,102786.63
2023-02-27T04:01:54.268Z,102789.31
2023-02-27T04:04:23.115Z,102800.09
2023-02-27T04:07:18.866Z,102802.75
2023-02-27T04:10:18.817Z,102804.72
2023-02-27T04:13:25.060Z,102806.69
2023-02-27T04:16:26.762Z,102810.47
2023-02-27T04:19:09.484Z,102806.25
2023-02-27T04:21:44.708Z,102808.06
2023-02-27T04:24:21.505Z,102807.22
2023-02-27T04:26:54.026Z,102804.72
2023-02-27T04:29:30.364Z,102801.34
2023-02-27T04:32:03.518Z,102808.50
2023-02-27T04:34:37.341Z,102806.81
2023-02-27T04:37:09.995Z,102801.47
2023-02-27T04:39:42.034Z,102807.78
2023-02-27T04:42:17.100Z,102808.75
2023-02-27T04:44:47.581Z,102814.94
2023-02-27T04:47:18.869Z,102813.25
2023-02-27T04:49:51.454Z,102818.44
2023-02-27T04:52:24.268Z,102815.06
2023-02-27T04:54:57.466Z,102823.06
2023-02-27T04:57:29.006Z,102817.16
2023-02-27T04:59:57.712Z,102821.50
2023-02-27T05:02:32.714Z,102820.66
2023-02-27T05:05:04.368Z,102827.81
2023-02-27T05:07:36.575Z,102828.66
2023-02-27T05:10:08.310Z,102826.00
2023-02-27T05:12:42.303Z,102829.63
2023-02-27T05:15:15.325Z,102833.16
2023-02-27T05:17:48.516Z,102826.97
2023-02-27T05:20:18.480Z,102828.81
2023-02-27T05:22:49.734Z,102833.16
2023-02-27T05:25:25.983Z,102826.13
2023-02-27T05:27:58.458Z,102831.72
2023-02-27T05:30:31.935Z,102835.09
2023-02-27T05:33:06.712Z,102834.25
2023-02-27T05:35:39.203Z,102833.56
2023-02-27T05:38:11.172Z,102835.38
2023-02-27T05:40:42.648Z,102832.72
2023-02-27T05:43:13.290Z,102837.91
2023-02-27T05:45:43.321Z,102840.69
2023-02-27T05:48:17.832Z,102836.34
2023-02-27T05:50:50.033Z,102840.84
2023-02-27T05:53:21.665Z,102849.81
2023-02-27T05:55:52.358Z,102858.66
2023-02-27T05:58:24.742Z,102856.13
2023-02-27T06:00:55.929Z,102857.81
2023-02-27T06:03:26.052Z,102860.19
2023-02-27T06:05:55.461Z,102857.56
2023-02-27T06:08:23.877Z,102859.28
2023-02-27T06:10:51.810Z,102865.34
2023-02-27T06:13:20.009Z,102865.91
2023-02-27T06:15:47.718Z,102869.00
2023-02-27T06:18:16.940Z,102873.50
2023-02-27T06:20:47.024Z,102875.75
2023-02-27T06:23:14.972Z,102882.69
2023-02-27T06:25:43.187Z,102878.88
2023-02-27T06:28:11.225Z,102881.81
2023-02-27T06:30:39.458Z,102888.13
2023-02-27T06:33:07.228Z,102890.50
2023-02-27T06:35:35.266Z,102886.56
2023-02-27T06:38:05.011Z,102898.19
2023-02-27T06:40:32.770Z,102897.34
2023-02-27T06:43:00.819Z,102905.19
2023-02-27T06:45:28.531Z,102901.41
2023-02-27T06:47:56.224Z,102907.00
2023-02-27T06:50:23.967Z,102908.25
2023-02-27T06:52:52.030Z,102906.00
2023-02-27T06:55:22.736Z,102914.41
2023-02-27T06:57:50.614Z,102903.97
2023-02-27T07:00:19.157Z,102923.06
2023-02-27T07:02:46.951Z,102930.59
2023-02-27T07:05:14.796Z,102930.88
2023-02-27T07:07:42.807Z,102937.44
2023-02-27T07:10:12.877Z,102950.06
2023-02-27T07:12:42.342Z,102942.31
2023-02-27T07:15:12.496Z,102959.28
2023-02-27T07:17:40.252Z,102953.38
2023-02-27T07:20:10.566Z,102954.22
2023-02-27T07:22:38.913Z,102959.56
2023-02-27T07:25:07.909Z,102961.50
2023-02-27T07:27:35.620Z,102958.00
2023-02-27T07:30:05.499Z,102969.63
2023-02-27T07:32:33.492Z,102966.97
2023-02-27T07:35:01.273Z,102963.44
2023-02-27T07:37:29.001Z,102965.41
2023-02-27T07:39:56.682Z,102969.03
2023-02-27T07:42:24.533Z,102967.34
2023-02-27T07:44:52.283Z,102963.84
2023-02-27T07:47:21.351Z,102962.03
2023-02-27T07:49:49.092Z,102965.41
2023-02-27T07:52:16.845Z,102965.53
2023-02-27T07:54:44.523Z,102959.38
2023-02-27T07:57:12.548Z,102964.56
2023-02-27T07:59:40.292Z,102968.06
2023-02-27T08:02:08.089Z,102964.44
2023-02-27T08:04:37.176Z,102959.09
2023-02-27T08:07:05.083Z,102955.59
2023-02-27T08:09:32.844Z,102955.59
2023-02-27T08:12:03.024Z,102950.41
2023-02-27T08:14:30.807Z,102953.91
2023-02-27T08:17:00.222Z,102960.09
2023-02-27T08:19:28.024Z,102966.38
2023-02-27T08:21:57.080Z,102962.28
2023-02-27T08:24:25.140Z,102965.66
2023-02-27T08:26:52.938Z,102972.81
2023-02-27T08:29:20.670Z,102974.63
2023-02-27T08:31:48.508Z,102972.09
2023-02-27T08:34:16.553Z,102972.09
2023-02-27T08:36:44.487Z,102984.56
2023-02-27T08:39:14.141Z,102981.91
2023-02-27T08:41:41.882Z,102983.47
2023-02-27T08:44:09.608Z,102993.28
2023-02-27T08:46:37.461Z,102992.44
2023-02-27T08:49:05.670Z,102997.50
2023-02-27T08:51:33.605Z,102993.16
2023-02-27T08:54:01.477Z,102992.31
2023-02-27T08:56:31.506Z,102998.59
2023-02-27T08:58:59.298Z,102984.06
2023-02-27T09:01:31.722Z,102988.47
2023-02-27T09:03:59.564Z,102997.66
2023-02-27T09:06:28.346Z,103000.44
2023-02-27T09:08:56.293Z,103000.63
2023-02-27T09:11:24.388Z,102995.34
2023-02-27T09:13:53.854Z,102992.28
2023-02-27T09:16:22.734Z,102995.00
2023-02-27T09:18:51.227Z,102997.44
2023-02-27T09:21:19.230Z,102997.03
2023-02-27T09:23:47.285Z,102996.03
2023-02-27T09:26:16.116Z,102991.97
2023-02-27T09:28:44.013Z,102989.56
2023-02-27T09:31:13.358Z,102993.38
2023-02-27T09:33:41.118Z,102995.34
2023-02-27T09:36:09.253Z,102998.97
2023-02-27T09:38:40.917Z,102990.34
2023-02-27T09:41:23.320Z,102998.59
2023-02-27T09:43:52.735Z,102999.16
2023-02-27T09:46:25.645Z,103003.47
2023-02-27T09:48:55.732Z,102999.72
2023-02-27T09:51:24.499Z,103002.44
2023-02-27T09:53:55.587Z,102993.94
2023-02-27T09:56:27.217Z,102993.38
2023-02-27T09:59:02.604Z,102990.97
2023-02-27T10:01:37.688Z,102990.00
2023-02-27T10:04:31.582Z,102990.81
2023-02-27T10:07:08.525Z,102997.84
2023-02-27T10:09:38.868Z,102995.03
2023-02-27T10:12:16.587Z,102994.91
2023-02-27T10:14:48.838Z,103006.56
2023-02-27T10:17:24.572Z,103003.34
2023-02-27T10:19:54.450Z,103003.19
2023-02-27T10:22:27.454Z,103005.53
2023-02-27T10:25:01.423Z,103007.06
2023-02-27T10:27:31.614Z,102996.66
2023-02-27T10:30:23.544Z,103000.44
2023-02-27T10:33:07.538Z,103003.38
2023-02-27T10:35:38.607Z,102998.16
2023-02-27T10:38:13.600Z,103005.34
2023-02-27T10:40:43.835Z,102986.06
2023-02-27T10:43:17.061Z,102991.94
2023-02-27T10:45:44.738Z,102982.66
2023-02-27T10:48:14.520Z,102988.56
2023-02-27T10:50:44.412Z,102986.34
2023-02-27T10:53:20.349Z,102987.03
2023-02-27T10:56:01.511Z,102973.84
2023-02-27T10:58:34.767Z,102966.25
2023-02-27T11:01:06.229Z,102965.38
2023-02-27T11:03:40.617Z,102976.03
2023-02-27T11:06:22.344Z,102957.91
2023-02-27T11:09:14.873Z,102955.13
2023-02-27T11:11:42.787Z,102950.34
2023-02-27T11:14:26.414Z,102956.13
2023-02-27T11:16:56.206Z,102956.28
2023-02-27T11:19:36.953Z,102950.56
2023-02-27T11:22:08.275Z,102953.22
2023-02-27T11:24:36.911Z,102952.25
2023-02-27T11:27:17.848Z,102944.25
2023-02-27T11:29:58.088Z,102945.41
2023-02-27T11:32:27.845Z,102928.28
2023-02-27T11:34:57.495Z,102918.22
2023-02-27T11:37:30.301Z,102918.47
2023-02-27T11:40:04.691Z,102907.03
2023-02-27T11:42:35.539Z,102909.78
2023-02-27T11:45:07.886Z,102912.03
2023-02-27T11:47:38.392Z,102917.66
2023-02-27T11:50:36.777Z,102913.34
2023-02-27T11:53:21.786Z,102913.66
2023-02-27T11:55:50.993Z,102910.84
2023-02-27T11:58:22.926Z,102913.38
2023-02-27T12:00:55.387Z,102909.03
2023-02-27T12:03:31.705Z,102907.06
2023-02-27T12:06:04.854Z,102904.25
2023-02-27T12:08:42.223Z,102910.00
2023-02-27T12:11:21.584Z,102911.97
2023-02-27T12:13:54.733Z,102900.16
2023-02-27T12:16:33.476Z,102902.81
2023-02-27T12:19:08.517Z,102896.53
2023-02-27T12:21:42.752Z,102892.47
2023-02-27T12:24:17.845Z,102897.25
2023-02-27T12:26:47.808Z,102898.09
2023-02-27T12:29:23.987Z,102904.84
2023-02-27T12:32:00.336Z,102907.09
2023-02-27T12:34:30.039Z,102903.44
2023-02-27T12:37:03.098Z,102900.06
2023-02-27T12:39:32.479Z,102907.78
2023-02-27T12:42:27.815Z,102897.53
2023-02-27T12:45:11.198Z,102890.91
2023-02-27T12:47:47.724Z,102891.06
2023-02-27T12:50:18.121Z,102897.53
2023-02-27T12:53:03.496Z,102898.50
2023-02-27T12:55:34.253Z,102895.22
2023-02-27T12:58:26.564Z,102896.53
2023-02-27T13:01:00.827Z,102889.41
2023-02-27T13:03:34.464Z,102884.75
2023-02-27T13:06:08.245Z,102884.00
2023-02-27T13:08:58.888Z,102888.91
2023-02-27T13:11:38.313Z,102880.81
2023-02-27T13:14:13.424Z,102880.44
2023-02-27T13:16:45.108Z,102877.81
2023-02-27T13:19:16.478Z,102881.88
2023-02-27T13:21:50.556Z,102877.44
2023-02-27T13:24:27.537Z,102881.31
2023-02-27T13:26:59.085Z,102882.38
2023-02-27T13:29:34.953Z,102888.66
2023-02-27T13:32:14.468Z,102882.00
2023-02-27T13:34:46.650Z,102879.38
2023-02-27T13:37:14.458Z,102878.28
2023-02-27T13:39:57.043Z,102877.19
2023-02-27T13:42:58.368Z,102874.38
2023-02-27T13:45:55.046Z,102872.31
2023-02-27T13:48:49.312Z,102864.53
2023-02-27T13:51:44.977Z,102867.19
2023-02-27T13:54:26.423Z,102862.53
2023-02-27T13:57:21.274Z,102864.91
2023-02-27T14:00:08.595Z,102867.94
2023-02-27T14:02:58.408Z,102867.03
2023-02-27T14:05:32.241Z,102870.88
2023-02-27T14:08:10.603Z,102860.16
2023-02-27T14:10:41.444Z,102859.22
2023-02-27T14:13:42.640Z,102866.16
2023-02-27T14:16:12.401Z,102864.78
2023-02-27T14:18:58.265Z,102862.56
2023-02-27T14:21:55.824Z,102862.88
2023-02-27T14:24:38.231Z,102865.63
2023-02-27T14:27:15.495Z,102865.19
2023-02-27T14:29:46.626Z,102860.81
2023-02-27T14:32:20.859Z,102863.66
2023-02-27T14:34:49.221Z,102856.47
2023-02-27T14:37:21.687Z,102855.91
2023-02-27T14:39:50.777Z,102854.25
2023-02-27T14:42:36.444Z,102856.38
2023-02-27T14:45:05.461Z,102853.59
2023-02-27T14:47:37.167Z,102850.38
2023-02-27T14:50:07.336Z,102851.06
2023-02-27T14:52:44.378Z,102849.78
2023-02-27T14:55:17.826Z,102847.72
2023-02-27T14:57:57.890Z,102841.88
2023-02-27T15:00:33.978Z,102839.59
2023-02-27T15:03:19.406Z,102847.00
2023-02-27T15:05:48.851Z,102839.44
2023-02-27T15:08:20.630Z,102833.00
2023-02-27T15:10:49.101Z,102834.38
2023-02-27T15:13:25.469Z,102828.75
2023-02-27T15:16:16.699Z,102829.97
2023-02-27T15:18:48.550Z,102829.22
2023-02-27T15:21:16.680Z,102836.50
2023-02-27T15:23:44.936Z,102834.63
2023-02-27T15:26:14.461Z,102830.97
2023-02-27T15:28:42.399Z,102835.47
2023-02-27T15:31:18.847Z,102827.53
2023-02-27T15:33:49.392Z,102836.69
2023-02-27T15:36:24.208Z,102838.59
2023-02-27T15:39:06.858Z,102839.94
2023-02-27T15:41:35.619Z,102838.50
2023-02-27T15:44:04.389Z,102836.38
2023-02-27T15:46:33.195Z,102840.41
2023-02-27T15:49:02.830Z,102841.25
2023-02-27T15:51:31.388Z,102845.22
2023-02-27T15:54:01.461Z,102847.34
2023-02-27T15:56:34.861Z,102851.47
2023-02-27T15:59:04.952Z,102843.22
2023-02-27T16:01:34.889Z,102845.88
2023-02-27T16:04:07.336Z,102846.56
2023-02-27T16:06:37.353Z,102847.13
2023-02-27T16:09:07.568Z,102850.47
2023-02-27T16:11:37.190Z,102855.84
2023-02-27T16:14:05.995Z,102845.44
2023-02-27T16:16:36.183Z,102854.44
2023-02-27T16:19:26.277Z,102852.38
2023-02-27T16:22:06.571Z,102864.50
2023-02-27T16:24:34.795Z,102854.59
2023-02-27T16:27:02.926Z,102860.91
2023-02-27T16:29:35.610Z,102865.72
2023-02-27T16:32:04.809Z,102864.88
2023-02-27T16:34:45.265Z,102863.34
2023-02-27T16:37:21.899Z,102866.72
2023-02-27T16:39:51.777Z,102873.44
2023-02-27T16:42:19.578Z,102861.63
2023-02-27T16:44:47.484Z,102866.97
2023-02-27T16:47:15.238Z,102855.56
2023-02-27T16:49:45.648Z,102857.00
2023-02-27T16:52:13.346Z,102867.16
2023-02-27T16:54:41.135Z,102864.63
2023-02-27T16:57:10.096Z,102872.63
2023-02-27T16:59:40.498Z,102874.88
2023-02-27T17:02:13.341Z,102871.91
2023-02-27T17:04:44.026Z,102876.50
2023-02-27T17:07:16.672Z,102873.00
2023-02-27T17:09:44.836Z,102880.38
2023-02-27T17:12:13.271Z,102878.28
2023-02-27T17:14:41.149Z,102878.81
2023-02-27T17:17:10.793Z,102887.38
2023-02-27T17:19:39.072Z,102879.47
2023-02-27T17:22:07.073Z,102887.44
2023-02-27T17:24:36.158Z,102889.41
2023-02-27T17:27:04.006Z,102888.50
2023-02-27T17:29:31.832Z,102895.09
2023-02-27T17:31:59.606Z,102885.63
2023-02-27T17:34:27.405Z,102894.72
2023-02-27T17:36:55.133Z,102897.31
2023-02-27T17:39:22.891Z,102901.75
2023-02-27T17:41:52.899Z,102900.66
2023-02-27T17:44:20.760Z,102910.28
2023-02-27T17:46:48.532Z,102910.19
2023-02-27T17:49:17.115Z,102907.13
2023-02-27T17:51:44.849Z,102911.78
2023-02-27T17:54:12.615Z,102910.41
2023-02-27T17:56:40.765Z,102920.53
2023-02-27T17:59:10.899Z,102921.84
2023-02-27T18:01:38.644Z,102921.97
2023-02-27T18:04:07.985Z,102921.69
2023-02-27T18:06:36.204Z,102924.84
2023-02-27T18:09:04.042Z,102931.22
2023-02-27T18:11:31.766Z,102924.53
2023-02-27T18:14:00.457Z,102926.59
2023-02-27T18:16:30.084Z,102934.19
2023-02-27T18:18:58.014Z,102935.94
2023-02-27T18:21:27.170Z,102935.72
2023-02-27T18:23:56.218Z,102935.41
2023-02-27T18:26:30.421Z,102940.53
2023-02-27T18:29:00.302Z,102939.06
2023-02-27T18:31:32.048Z,102937.47
2023-02-27T18:33:59.903Z,102937.91
2023-02-27T18:36:28.896Z,102936.84
2023-02-27T18:38:56.876Z,102936.59
2023-02-27T18:41:24.711Z,102936.19
2023-02-27T18:43:52.637Z,102943.97
2023-02-27T18:46:20.818Z,102940.06
2023-02-27T18:48:50.066Z,102939.66
2023-02-27T18:51:18.561Z,102940.94
2023-02-27T18:53:48.822Z,102937.44
2023-02-27T18:56:18.965Z,102940.94
2023-02-27T18:58:46.921Z,102940.81
2023-02-27T19:01:20.200Z,102940.09
2023-02-27T19:03:50.045Z,102944.03
2023-02-27T19:06:18.583Z,102940.41
2023-02-27T19:08:46.723Z,102944.25
2023-02-27T19:11:22.581Z,102941.59
2023-02-27T19:13:50.340Z,102946.97
2023-02-27T19:16:18.288Z,102944.44
2023-02-27T19:18:46.119Z,102936.53
2023-02-27T19:21:15.254Z,102941.59
2023-02-27T19:23:43.321Z,102939.34
2023-02-27T19:26:11.081Z,102938.13
2023-02-27T19:28:38.842Z,102948.94
2023-02-27T19:31:08.082Z,102952.75
2023-02-27T19:33:35.904Z,102954.75
2023-02-27T19:36:06.603Z,102957.44
2023-02-27T19:38:36.157Z,102959.50
2023-02-27T19:41:04.917Z,102957.19
2023-02-27T19:43:32.685Z,102956.41
2023-02-27T19:46:00.458Z,102958.97
2023-02-27T19:48:28.196Z,102961.56
2023-02-27T19:50:55.914Z,102956.09
2023-02-27T19:53:23.640Z,102958.53
2023-02-27T19:56:00.124Z,102962.63
2023-02-27T19:58:28.742Z,102966.44
2023-02-27T20:00:56.576Z,102961.53
2023-02-27T20:03:24.497Z,102963.50
2023-02-27T20:05:52.566Z,102963.13
2023-02-27T20:08:20.259Z,102955.72
2023-02-27T20:10:54.985Z,102972.41
2023-02-27T20:13:24.376Z,102963.72
2023-02-27T20:15:59.108Z,102955.44
2023-02-27T20:18:29.751Z,102967.69
2023-02-27T20:21:03.129Z,102963.63
2023-02-27T20:23:31.824Z,102963.75
2023-02-27T20:26:00.338Z,102971.09
2023-02-27T20:28:29.471Z,102966.72
2023-02-27T20:30:58.475Z,102962.38
2023-02-27T20:33:26.171Z,102972.06
2023-02-27T20:35:53.913Z,102968.84
2023-02-27T20:38:22.744Z,102964.50
2023-02-27T20:40:50.962Z,102961.97
2023-02-27T20:43:18.720Z,102961.13
2023-02-27T20:45:48.052Z,102958.03
2023-02-27T20:48:15.841Z,102959.88
2023-02-27T20:50:43.518Z,102965.34
2023-02-27T20:53:11.313Z,102967.03
2023-02-27T20:55:41.556Z,102967.19
2023-02-27T20:58:09.300Z,102960.16
2023-02-27T21:00:37.971Z,102963.81
2023-02-27T21:03:07.195Z,102973.81
2023-02-27T21:05:35.143Z,102972.13
2023-02-27T21:08:02.903Z,102965.94
2023-02-27T21:10:30.584Z,102971.41
2023-02-27T21:12:58.319Z,102970.56
2023-02-27T21:15:26.203Z,102961.72
2023-02-27T21:17:53.928Z,102971.00
2023-02-27T21:20:23.058Z,102976.47
2023-02-27T21:22:50.761Z,102960.59
2023-02-27T21:25:18.692Z,102968.06
2023-02-27T21:27:46.407Z,102970.03
2023-02-27T21:30:14.435Z,102968.47
2023-02-27T21:32:42.327Z,102964.13
2023-02-27T21:35:10.578Z,102967.94
2023-02-27T21:37:46.687Z,102965.41
2023-02-27T21:40:15.124Z,102971.44
2023-02-27T21:42:43.824Z,102958.09
2023-02-27T21:45:12.598Z,102971.59
2023-02-27T21:47:40.323Z,102976.22
2023-02-27T21:50:14.237Z,102964.00
2023-02-27T21:52:44.897Z,102965.13
2023-02-27T21:55:14.281Z,102957.53
2023-02-27T21:57:42.067Z,102968.06
2023-02-27T22:00:12.196Z,102969.06
2023-02-27T22:02:40.636Z,102978.06
2023-02-27T22:05:09.219Z,102972.16
2023-02-27T22:07:37.581Z,102966.66
2023-02-27T22:10:07.366Z,102966.81
2023-02-27T22:12:35.113Z,102956.13
2023-02-27T22:15:02.921Z,102968.78
2023-02-27T22:17:30.919Z,102965.28
2023-02-27T22:19:58.638Z,102959.09
2023-02-27T22:22:26.408Z,102964.44
2023-02-27T22:24:54.173Z,102954.03
2023-02-27T22:27:23.232Z,102962.31
2023-02-27T22:29:50.977Z,102958.25
2023-02-27T22:32:18.792Z,102962.88
2023-02-27T22:34:46.471Z,102969.91
2023-02-27T22:37:16.098Z,102972.56
2023-02-27T22:39:43.886Z,102972.56
2023-02-27T22:42:11.631Z,102968.22
2023-02-27T22:44:40.846Z,102972.72
2023-02-27T22:47:09.368Z,102984.25
2023-02-27T22:49:39.195Z,102985.22
2023-02-27T22:52:06.901Z,102981.56
2023-02-27T22:54:34.724Z,102980.72
2023-02-27T22:57:02.422Z,102982.00
2023-02-27T22:59:30.133Z,102980.28
2023-02-27T23:01:59.225Z,102974.13
2023-02-27T23:04:27.089Z,102980.44
2023-02-27T23:06:56.618Z,102993.66
2023-02-27T23:09:27.172Z,102988.31
2023-02-27T23:11:55.260Z,102998.28
2023-02-27T23:14:23.690Z,102998.84
2023-02-27T23:16:51.441Z,103006.16
2023-02-27T23:19:21.448Z,102996.59
2023-02-27T23:21:49.391Z,102997.72
2023-02-27T23:24:19.209Z,103007.69
2023-02-27T23:26:49.200Z,103006.69
2023-02-27T23:29:17.496Z,102984.59
2023-02-27T23:31:45.602Z,102996.81
2023-02-27T23:34:13.427Z,103008.09
2023-02-27T23:36:42.497Z,103010.63
2023-02-27T23:39:10.742Z,103002.88
2023-02-27T23:41:38.494Z,103004.97
2023-02-27T23:44:06.400Z,103010.16
2023-02-27T23:46:34.120Z,103002.16
2023-02-27T23:49:02.602Z,103012.00
2023-02-27T23:51:31.195Z,103014.66
2023-02-27T23:54:00.938Z,103005.09
2023-02-27T23:56:30.616Z,103009.59
2023-02-27T23:59:00.324Z,103011.28
